createdAt,value
2019-03-03T00:01:46.914Z,16.99
2019-03-03T00:04:14.147Z,16.98
2019-03-03T00:06:41.115Z,17.02
2019-03-03T00:09:08.343Z,17.03
2019-03-03T00:11:37.246Z,17.04
2019-03-03T00:14:04.268Z,17.08
2019-03-03T00:16:31.417Z,17.11
2019-03-03T00:18:58.293Z,17.12
2019-03-03T00:21:25.313Z,17.13
2019-03-03T00:23:52.254Z,17.16
2019-03-03T00:26:19.158Z,17.16
2019-03-03T00:28:46.141Z,17.17
2019-03-03T00:31:13.410Z,17.20
2019-03-03T00:33:40.305Z,17.26
2019-03-03T00:36:07.619Z,17.29
2019-03-03T00:38:34.577Z,17.35
2019-03-03T00:41:01.553Z,17.39
2019-03-03T00:43:28.853Z,17.43
2019-03-03T00:45:56.112Z,17.48
2019-03-03T00:48:22.990Z,17.51
2019-03-03T00:50:49.910Z,17.55
2019-03-03T00:53:16.865Z,17.56
2019-03-03T00:55:43.801Z,17.59
2019-03-03T00:58:11.046Z,17.61
2019-03-03T01:00:37.965Z,17.65
2019-03-03T01:03:05.249Z,17.70
2019-03-03T01:05:32.202Z,17.72
2019-03-03T01:07:59.186Z,17.74
2019-03-03T01:10:26.117Z,17.75
2019-03-03T01:12:53.060Z,17.77
2019-03-03T01:15:20.380Z,17.79
2019-03-03T01:17:47.301Z,17.80
2019-03-03T01:20:14.573Z,17.84
2019-03-03T01:22:41.463Z,17.87
2019-03-03T01:25:08.676Z,17.91
2019-03-03T01:27:35.557Z,17.92
2019-03-03T01:30:02.447Z,17.93
2019-03-03T01:32:29.821Z,17.95
2019-03-03T01:34:56.784Z,17.94
2019-03-03T01:37:23.670Z,17.93
2019-03-03T01:39:50.976Z,17.97
2019-03-03T01:42:17.937Z,18.01
2019-03-03T01:44:45.276Z,18.00
2019-03-03T01:47:13.335Z,18.00
2019-03-03T01:49:40.275Z,18.03
2019-03-03T01:52:07.218Z,18.04
2019-03-03T01:54:34.384Z,18.04
2019-03-03T01:57:01.667Z,18.02
2019-03-03T01:59:28.625Z,17.98
2019-03-03T02:01:55.508Z,17.98
2019-03-03T02:04:23.447Z,17.96
2019-03-03T02:06:50.381Z,17.96
2019-03-03T02:09:17.287Z,17.98
2019-03-03T02:11:44.240Z,18.01
2019-03-03T02:14:11.134Z,18.02
2019-03-03T02:16:38.074Z,18.01
2019-03-03T02:19:05.292Z,18.04
2019-03-03T02:21:32.179Z,18.01
2019-03-03T02:23:59.468Z,18.02
2019-03-03T02:26:26.749Z,18.04
2019-03-03T02:28:53.675Z,18.06
2019-03-03T02:31:20.912Z,18.08
2019-03-03T02:33:48.071Z,18.08
2019-03-03T02:36:15.037Z,18.06
2019-03-03T02:38:42.509Z,18.00
2019-03-03T02:41:09.401Z,17.96
2019-03-03T02:43:36.291Z,17.94
2019-03-03T02:46:03.622Z,17.96
2019-03-03T02:48:30.587Z,17.99
2019-03-03T02:50:57.528Z,18.01
2019-03-03T02:53:24.480Z,18.02
2019-03-03T02:55:51.432Z,18.05
2019-03-03T02:58:18.399Z,18.00
2019-03-03T03:00:45.389Z,18.02
2019-03-03T03:03:12.656Z,18.05
2019-03-03T03:05:39.647Z,18.09
2019-03-03T03:08:06.617Z,18.08
2019-03-03T03:10:33.574Z,18.07
2019-03-03T03:13:00.554Z,18.07
2019-03-03T03:15:27.552Z,18.10
2019-03-03T03:17:54.732Z,18.10
2019-03-03T03:20:21.731Z,18.10
2019-03-03T03:22:48.660Z,18.10
2019-03-03T03:25:15.592Z,18.13
2019-03-03T03:27:42.478Z,18.16
2019-03-03T03:30:09.462Z,18.15
2019-03-03T03:32:36.411Z,18.13
2019-03-03T03:35:03.357Z,18.16
2019-03-03T03:37:30.311Z,18.19
2019-03-03T03:39:57.274Z,18.20
2019-03-03T03:42:24.597Z,18.21
2019-03-03T03:44:51.570Z,18.18
2019-03-03T03:47:18.887Z,18.21
2019-03-03T03:49:45.827Z,18.20
2019-03-03T03:52:12.742Z,18.19
2019-03-03T03:54:39.708Z,18.15
2019-03-03T03:57:06.602Z,18.14
2019-03-03T03:59:33.922Z,18.18
2019-03-03T04:02:00.813Z,18.20
2019-03-03T04:04:27.775Z,18.19
2019-03-03T04:06:54.749Z,18.22
2019-03-03T04:09:21.705Z,18.24
2019-03-03T04:11:48.676Z,18.23
2019-03-03T04:14:15.609Z,18.25
2019-03-03T04:16:42.543Z,18.24
2019-03-03T04:19:09.488Z,18.24
2019-03-03T04:21:36.460Z,18.24
2019-03-03T04:24:03.430Z,18.20
2019-03-03T04:26:30.368Z,18.21
2019-03-03T04:28:57.688Z,18.23
2019-03-03T04:31:24.621Z,18.25
2019-03-03T04:33:51.511Z,18.25
2019-03-03T04:36:18.838Z,18.24
2019-03-03T04:38:45.820Z,18.23
2019-03-03T04:41:12.784Z,18.24
2019-03-03T04:43:40.110Z,18.26
2019-03-03T04:46:07.042Z,18.24
2019-03-03T04:48:34.210Z,18.23
2019-03-03T04:51:01.156Z,18.23
2019-03-03T04:53:28.485Z,18.23
2019-03-03T04:55:55.726Z,18.23
2019-03-03T04:58:22.983Z,18.25
2019-03-03T05:00:49.904Z,18.29
2019-03-03T05:03:17.178Z,18.32
2019-03-03T05:05:44.436Z,18.34
2019-03-03T05:08:11.335Z,18.38
2019-03-03T05:10:38.570Z,18.38
2019-03-03T05:13:05.512Z,18.38
2019-03-03T05:15:32.516Z,18.38
2019-03-03T05:17:59.505Z,18.34
2019-03-03T05:20:26.463Z,18.37
2019-03-03T05:22:53.780Z,18.40
2019-03-03T05:25:22.964Z,18.39
2019-03-03T05:27:49.898Z,18.40
2019-03-03T05:30:16.990Z,18.39
2019-03-03T05:32:43.957Z,18.40
2019-03-03T05:35:10.878Z,18.40
2019-03-03T05:37:37.758Z,18.41
2019-03-03T05:40:04.625Z,18.42
2019-03-03T05:42:31.569Z,18.41
2019-03-03T05:44:58.457Z,18.41
2019-03-03T05:47:25.428Z,18.40
2019-03-03T05:49:52.403Z,18.41
2019-03-03T05:52:20.460Z,18.42
2019-03-03T05:54:47.442Z,18.42
2019-03-03T05:57:14.717Z,18.44
2019-03-03T05:59:42.023Z,18.45
2019-03-03T06:02:09.306Z,18.42
2019-03-03T06:04:36.549Z,18.42
2019-03-03T06:07:03.421Z,18.38
2019-03-03T06:09:30.380Z,18.40
2019-03-03T06:14:30.148Z,18.42
2019-03-03T06:16:57.117Z,18.39
2019-03-03T06:19:24.090Z,18.39
2019-03-03T06:21:51.452Z,18.42
2019-03-03T06:24:18.429Z,18.45
2019-03-03T06:26:45.440Z,18.43
2019-03-03T06:29:12.396Z,18.41
2019-03-03T06:31:39.300Z,18.42
2019-03-03T06:34:06.570Z,18.45
2019-03-03T06:36:33.528Z,18.47
2019-03-03T06:39:00.482Z,18.49
2019-03-03T06:41:29.467Z,18.47
2019-03-03T06:43:56.410Z,18.46
2019-03-03T06:46:23.292Z,18.45
2019-03-03T06:48:50.190Z,18.45
2019-03-03T06:51:17.090Z,18.46
2019-03-03T06:53:44.388Z,18.45
2019-03-03T06:56:11.749Z,18.46
2019-03-03T06:58:38.754Z,18.49
2019-03-03T07:01:06.098Z,18.48
2019-03-03T07:03:33.397Z,18.50
2019-03-03T07:06:00.348Z,18.50
2019-03-03T07:08:27.212Z,18.51
2019-03-03T07:10:54.108Z,18.53
2019-03-03T07:13:21.077Z,18.50
2019-03-03T07:15:48.021Z,18.51
2019-03-03T07:18:14.965Z,18.52
2019-03-03T07:20:42.211Z,18.57
2019-03-03T07:23:09.358Z,18.60
2019-03-03T07:25:36.621Z,18.61
2019-03-03T07:28:03.581Z,18.64
2019-03-03T07:30:30.548Z,18.62
2019-03-03T07:32:57.409Z,18.66
2019-03-03T07:35:24.315Z,18.65
2019-03-03T07:37:52.404Z,18.72
2019-03-03T07:40:19.917Z,18.81
2019-03-03T07:42:47.339Z,18.86
2019-03-03T07:45:14.236Z,18.92
2019-03-03T07:47:42.511Z,18.97
2019-03-03T07:50:09.390Z,19.01
2019-03-03T07:52:37.896Z,18.99
2019-03-03T07:55:05.196Z,18.95
2019-03-03T07:57:32.087Z,18.93
2019-03-03T07:59:58.962Z,18.93
2019-03-03T08:02:25.844Z,18.97
2019-03-03T08:04:53.087Z,19.01
2019-03-03T08:07:20.325Z,19.05
2019-03-03T08:09:47.594Z,19.09
2019-03-03T08:12:14.838Z,19.08
2019-03-03T08:14:42.090Z,19.05
2019-03-03T08:17:09.069Z,19.07
2019-03-03T08:19:36.508Z,19.11
2019-03-03T08:22:03.785Z,19.11
2019-03-03T08:24:30.669Z,19.10
2019-03-03T08:26:57.644Z,19.13
2019-03-03T08:29:24.631Z,19.16
2019-03-03T08:31:51.936Z,19.20
2019-03-03T08:34:18.907Z,19.22
2019-03-03T08:36:45.829Z,19.24
2019-03-03T08:39:12.749Z,19.28
2019-03-03T08:41:40.327Z,19.28
2019-03-03T08:44:07.295Z,19.29
2019-03-03T08:46:35.273Z,19.33
2019-03-03T08:49:02.595Z,19.37
2019-03-03T08:51:29.479Z,19.40
2019-03-03T08:53:56.395Z,19.46
2019-03-03T08:56:23.646Z,19.44
2019-03-03T08:58:51.015Z,19.45
2019-03-03T09:01:19.004Z,19.47
2019-03-03T09:03:45.900Z,19.50
2019-03-03T09:06:13.014Z,19.52
2019-03-03T09:08:40.177Z,19.53
2019-03-03T09:11:08.468Z,19.55
2019-03-03T09:13:37.261Z,19.61
2019-03-03T09:16:04.753Z,19.68
2019-03-03T09:18:35.654Z,19.78
2019-03-03T09:21:02.521Z,19.77
2019-03-03T09:23:29.605Z,19.79
2019-03-03T09:25:56.729Z,19.78
2019-03-03T09:28:23.685Z,19.82
2019-03-03T09:30:51.776Z,19.84
2019-03-03T09:33:24.182Z,19.83
2019-03-03T09:35:52.292Z,19.84
2019-03-03T09:38:19.765Z,19.83
2019-03-03T09:40:52.356Z,19.80
2019-03-03T09:43:19.660Z,19.81
2019-03-03T09:45:49.635Z,19.80
2019-03-03T09:48:17.076Z,19.79
2019-03-03T09:50:44.157Z,19.79
2019-03-03T09:53:11.629Z,19.76
2019-03-03T09:55:38.615Z,19.73
2019-03-03T09:58:06.082Z,19.71
2019-03-03T10:00:34.628Z,19.72
2019-03-03T10:03:01.739Z,19.73
2019-03-03T10:05:28.900Z,19.74
2019-03-03T10:07:55.943Z,19.76
2019-03-03T10:10:22.938Z,19.78
2019-03-03T10:12:50.212Z,19.80
2019-03-03T10:15:18.817Z,19.80
2019-03-03T10:17:45.972Z,19.81
2019-03-03T10:20:14.513Z,19.82
2019-03-03T10:22:43.704Z,19.81
2019-03-03T10:25:11.040Z,19.79
2019-03-03T10:27:38.517Z,19.81
2019-03-03T10:30:08.356Z,19.84
2019-03-03T10:32:37.039Z,19.92
2019-03-03T10:35:04.260Z,19.93
2019-03-03T10:37:33.233Z,19.89
2019-03-03T10:39:59.833Z,19.89
2019-03-03T10:42:29.597Z,19.87
2019-03-03T10:44:56.866Z,19.84
2019-03-03T10:47:23.795Z,19.88
2019-03-03T10:49:50.768Z,19.86
2019-03-03T10:52:17.831Z,19.88
2019-03-03T10:54:45.305Z,19.93
2019-03-03T10:57:12.325Z,19.92
2019-03-03T10:59:39.391Z,19.92
2019-03-03T11:02:06.430Z,19.90
2019-03-03T11:04:33.397Z,19.92
2019-03-03T11:07:00.359Z,19.96
2019-03-03T11:09:27.430Z,20.01
2019-03-03T11:11:54.375Z,20.08
2019-03-03T11:14:23.413Z,20.11
2019-03-03T11:16:50.617Z,20.14
2019-03-03T11:19:20.044Z,20.11
2019-03-03T11:21:46.676Z,20.12
2019-03-03T11:24:13.633Z,20.05
2019-03-03T11:26:41.322Z,20.00
2019-03-03T11:29:08.359Z,20.00
2019-03-03T11:31:35.371Z,19.99
2019-03-03T11:34:02.353Z,19.97
2019-03-03T11:36:29.234Z,19.96
2019-03-03T11:38:56.202Z,19.98
2019-03-03T11:41:23.098Z,19.98
2019-03-03T11:43:50.438Z,19.96
2019-03-03T11:46:17.434Z,19.97
2019-03-03T11:48:44.510Z,20.00
2019-03-03T11:51:11.930Z,20.00
2019-03-03T11:53:39.168Z,20.02
2019-03-03T11:56:06.431Z,20.01
2019-03-03T11:58:33.892Z,20.02
2019-03-03T12:01:00.872Z,20.01
2019-03-03T12:03:28.436Z,19.99
2019-03-03T12:05:55.400Z,19.99
2019-03-03T12:08:22.480Z,20.05
2019-03-03T12:10:49.834Z,20.11
2019-03-03T12:13:17.076Z,20.18
2019-03-03T12:15:44.345Z,20.23
2019-03-03T12:18:11.595Z,20.28
2019-03-03T12:20:39.946Z,20.35
2019-03-03T12:23:07.000Z,20.38
2019-03-03T12:25:34.019Z,20.36
2019-03-03T12:28:01.309Z,20.41
2019-03-03T12:30:29.997Z,20.41
2019-03-03T12:32:56.985Z,20.41
2019-03-03T12:35:23.970Z,20.41
2019-03-03T12:37:50.933Z,20.42
2019-03-03T12:40:17.886Z,20.45
2019-03-03T12:42:45.591Z,20.55
2019-03-03T12:45:12.882Z,20.61
2019-03-03T12:47:40.129Z,20.66
2019-03-03T12:50:07.397Z,20.66
2019-03-03T12:52:36.658Z,20.59
2019-03-03T12:55:03.943Z,20.48
2019-03-03T12:57:30.880Z,20.51
2019-03-03T12:59:58.140Z,20.53
2019-03-03T13:02:25.252Z,20.55
2019-03-03T13:04:52.215Z,20.55
2019-03-03T13:07:20.000Z,20.53
2019-03-03T13:09:47.522Z,20.51
2019-03-03T13:12:14.577Z,20.53
2019-03-03T13:14:41.514Z,20.57
2019-03-03T13:17:08.411Z,20.63
2019-03-03T13:19:37.666Z,20.64
2019-03-03T13:22:04.807Z,20.63
2019-03-03T13:24:31.802Z,20.61
2019-03-03T13:26:58.811Z,20.65
2019-03-03T13:29:26.075Z,20.67
2019-03-03T13:31:54.270Z,20.71
2019-03-03T13:34:21.176Z,20.71
2019-03-03T13:36:48.246Z,20.69
2019-03-03T13:39:15.202Z,20.68
2019-03-03T13:41:42.457Z,20.69
2019-03-03T13:44:11.131Z,20.68
2019-03-03T13:46:38.071Z,20.59
2019-03-03T13:49:06.577Z,20.58
2019-03-03T13:51:35.063Z,20.60
2019-03-03T13:54:02.062Z,20.62
2019-03-03T13:56:29.070Z,20.59
2019-03-03T13:58:56.424Z,20.44
2019-03-03T14:01:23.434Z,20.46
2019-03-03T14:03:50.563Z,20.52
2019-03-03T14:06:17.855Z,20.53
2019-03-03T14:08:45.946Z,20.53
2019-03-03T14:11:13.142Z,20.52
2019-03-03T14:13:40.104Z,20.57
2019-03-03T14:16:07.020Z,20.54
2019-03-03T14:18:34.286Z,20.54
2019-03-03T14:21:01.545Z,20.54
2019-03-03T14:23:28.440Z,20.56
2019-03-03T14:25:55.320Z,20.57
2019-03-03T14:28:22.317Z,20.53
2019-03-03T14:30:49.244Z,20.48
2019-03-03T14:33:16.233Z,20.40
2019-03-03T14:35:43.569Z,20.35
2019-03-03T14:38:10.791Z,20.34
2019-03-03T14:40:37.678Z,20.40
2019-03-03T14:43:04.751Z,20.45
2019-03-03T14:45:32.023Z,20.43
2019-03-03T14:47:59.301Z,20.39
2019-03-03T14:50:26.644Z,20.42
2019-03-03T14:52:53.867Z,20.41
2019-03-03T14:55:20.793Z,20.42
2019-03-03T14:57:47.829Z,20.46
2019-03-03T15:00:14.855Z,20.47
2019-03-03T15:02:42.142Z,20.49
2019-03-03T15:05:09.125Z,20.47
2019-03-03T15:07:36.619Z,20.48
2019-03-03T15:10:03.959Z,20.50
2019-03-03T15:12:31.095Z,20.48
2019-03-03T15:14:58.007Z,20.44
2019-03-03T15:17:24.973Z,20.43
2019-03-03T15:19:53.291Z,20.45
2019-03-03T15:22:20.633Z,20.45
2019-03-03T15:24:47.919Z,20.41
2019-03-03T15:27:14.867Z,20.39
2019-03-03T15:29:41.846Z,20.39
2019-03-03T15:32:09.462Z,20.41
2019-03-03T15:34:36.428Z,20.41
2019-03-03T15:37:03.845Z,20.37
2019-03-03T15:39:35.033Z,20.39
2019-03-03T15:42:01.974Z,20.40
2019-03-03T15:44:28.945Z,20.43
2019-03-03T15:46:55.917Z,20.46
2019-03-03T15:49:23.192Z,20.50
2019-03-03T15:51:50.453Z,20.49
2019-03-03T15:54:17.419Z,20.53
2019-03-03T15:56:44.396Z,20.54
2019-03-03T15:59:11.305Z,20.55
2019-03-03T16:01:38.327Z,20.54
2019-03-03T16:04:05.254Z,20.51
2019-03-03T16:06:32.138Z,20.52
2019-03-03T16:08:59.010Z,20.51
2019-03-03T16:11:25.926Z,20.47
2019-03-03T16:13:53.338Z,20.41
2019-03-03T16:16:20.636Z,20.39
2019-03-03T16:18:47.892Z,20.42
2019-03-03T16:21:14.856Z,20.41
2019-03-03T16:23:41.765Z,20.41
2019-03-03T16:26:08.763Z,20.40
2019-03-03T16:28:36.995Z,20.38
2019-03-03T16:31:03.966Z,20.39
2019-03-03T16:33:31.034Z,20.36
2019-03-03T16:35:57.978Z,20.38
2019-03-03T16:38:25.298Z,20.35
2019-03-03T16:40:52.272Z,20.35
2019-03-03T16:43:19.306Z,20.33
2019-03-03T16:45:46.548Z,20.31
2019-03-03T16:48:13.463Z,20.32
2019-03-03T16:50:40.637Z,20.31
2019-03-03T16:53:07.983Z,20.29
2019-03-03T16:55:35.231Z,20.30
2019-03-03T16:58:02.542Z,20.30
2019-03-03T17:00:29.505Z,20.33
2019-03-03T17:02:56.454Z,20.33
2019-03-03T17:05:23.741Z,20.32
2019-03-03T17:07:51.089Z,20.30
2019-03-03T17:10:19.991Z,20.31
2019-03-03T17:12:47.253Z,20.30
2019-03-03T17:15:14.496Z,20.29
2019-03-03T17:17:41.389Z,20.27
2019-03-03T17:20:08.729Z,20.26
2019-03-03T17:22:35.686Z,20.21
2019-03-03T17:25:05.838Z,20.20
2019-03-03T17:27:32.735Z,20.19
2019-03-03T17:30:00.099Z,20.18
2019-03-03T17:32:27.503Z,20.20
2019-03-03T17:34:54.885Z,20.21
2019-03-03T17:37:22.198Z,20.19
2019-03-03T17:39:49.357Z,20.18
2019-03-03T17:42:16.618Z,20.20
2019-03-03T17:44:43.975Z,20.16
2019-03-03T17:47:11.349Z,20.15
2019-03-03T17:49:38.666Z,20.15
2019-03-03T17:52:05.929Z,20.16
2019-03-03T17:54:32.828Z,20.15
2019-03-03T17:56:59.793Z,20.12
2019-03-03T17:59:26.758Z,20.09
2019-03-03T18:01:53.700Z,20.07
2019-03-03T18:04:21.742Z,20.04
2019-03-03T18:06:48.688Z,20.00
2019-03-03T18:09:15.674Z,19.99
2019-03-03T18:11:42.942Z,19.99
2019-03-03T18:14:11.911Z,19.93
2019-03-03T18:16:39.193Z,19.93
2019-03-03T18:19:06.438Z,19.91
2019-03-03T18:21:33.337Z,19.92
2019-03-03T18:24:00.635Z,19.93
2019-03-03T18:26:27.666Z,19.93
2019-03-03T18:28:54.934Z,19.97
2019-03-03T18:31:22.192Z,19.98
2019-03-03T18:33:49.135Z,19.97
2019-03-03T18:36:16.113Z,19.99
2019-03-03T18:38:43.080Z,19.98
2019-03-03T18:41:10.807Z,19.97
2019-03-03T18:43:37.834Z,19.93
2019-03-03T18:46:05.797Z,19.87
2019-03-03T18:48:34.311Z,19.91
2019-03-03T18:51:01.541Z,19.89
2019-03-03T18:53:28.514Z,19.91
2019-03-03T18:55:55.563Z,19.89
2019-03-03T18:58:22.901Z,19.91
2019-03-03T19:00:49.868Z,19.88
2019-03-03T19:03:16.834Z,19.90
2019-03-03T19:05:44.502Z,19.90
2019-03-03T19:08:12.827Z,19.89
2019-03-03T19:10:40.181Z,19.86
2019-03-03T19:13:07.078Z,19.85
2019-03-03T19:15:34.216Z,19.90
2019-03-03T19:18:01.652Z,19.86
2019-03-03T19:20:30.524Z,19.84
2019-03-03T19:22:57.834Z,19.84
2019-03-03T19:25:24.773Z,19.88
2019-03-03T19:27:51.773Z,19.92
2019-03-03T19:30:18.709Z,19.94
2019-03-03T19:32:45.942Z,19.93
2019-03-03T19:35:13.228Z,19.94
2019-03-03T19:37:40.204Z,19.91
2019-03-03T19:40:07.205Z,19.91
2019-03-03T19:42:34.441Z,19.92
2019-03-03T19:45:01.670Z,19.95
2019-03-03T19:47:29.354Z,19.96
2019-03-03T19:49:56.650Z,19.97
2019-03-03T19:52:23.598Z,19.97
2019-03-03T19:54:50.589Z,20.00
2019-03-03T19:57:17.554Z,20.01
2019-03-03T19:59:44.979Z,20.02
2019-03-03T20:02:12.162Z,20.02
2019-03-03T20:04:39.166Z,20.02
2019-03-03T20:07:06.242Z,20.03
2019-03-03T20:09:33.529Z,20.06
2019-03-03T20:12:00.518Z,20.05
2019-03-03T20:14:27.847Z,20.02
2019-03-03T20:16:56.141Z,20.01
2019-03-03T20:19:23.555Z,20.01
2019-03-03T20:21:50.445Z,20.00
2019-03-03T20:24:19.498Z,20.02
2019-03-03T20:26:46.500Z,20.05
2019-03-03T20:29:14.874Z,20.02
2019-03-03T20:31:42.114Z,20.02
2019-03-03T20:34:09.170Z,20.06
2019-03-03T20:36:36.121Z,20.06
2019-03-03T20:39:03.113Z,20.04
2019-03-03T20:41:31.711Z,19.99
2019-03-03T20:43:58.702Z,19.97
2019-03-03T20:46:25.622Z,19.99
2019-03-03T20:48:53.164Z,20.01
2019-03-03T20:51:20.423Z,20.00
2019-03-03T20:53:47.341Z,19.99
2019-03-03T20:56:14.652Z,19.99
2019-03-03T20:58:41.617Z,19.99
2019-03-03T21:01:08.601Z,19.99
2019-03-03T21:03:35.808Z,19.99
2019-03-03T21:06:02.795Z,19.98
2019-03-03T21:08:29.721Z,20.00
2019-03-03T21:10:57.002Z,20.01
2019-03-03T21:13:24.007Z,20.02
2019-03-03T21:15:51.400Z,20.03
2019-03-03T21:18:20.932Z,20.05
2019-03-03T21:20:48.353Z,20.07
2019-03-03T21:23:15.305Z,20.07
2019-03-03T21:25:42.264Z,20.07
2019-03-03T21:28:09.138Z,20.05
2019-03-03T21:30:36.500Z,20.04
2019-03-03T21:33:03.399Z,20.03
2019-03-03T21:35:31.439Z,20.03
2019-03-03T21:37:59.085Z,20.01
2019-03-03T21:40:26.162Z,20.04
2019-03-03T21:42:53.161Z,20.04
2019-03-03T21:45:20.086Z,20.04
2019-03-03T21:47:47.476Z,20.03
2019-03-03T21:50:14.473Z,20.02
2019-03-03T21:52:41.418Z,20.02
2019-03-03T21:55:08.364Z,20.03
2019-03-03T21:57:35.739Z,20.04
2019-03-03T22:00:03.791Z,20.05
2019-03-03T22:02:32.405Z,20.03
2019-03-03T22:04:59.751Z,20.02
2019-03-03T22:07:27.066Z,20.02
2019-03-03T22:09:54.235Z,20.04
2019-03-03T22:12:21.500Z,20.04
2019-03-03T22:14:48.397Z,20.02
2019-03-03T22:17:15.376Z,20.03
2019-03-03T22:19:42.284Z,20.04
2019-03-03T22:22:09.238Z,20.03
2019-03-03T22:24:36.198Z,20.03
2019-03-03T22:27:03.161Z,20.02
2019-03-03T22:29:30.116Z,20.05
2019-03-03T22:31:58.240Z,20.05
2019-03-03T22:34:25.450Z,20.04
2019-03-03T22:36:53.830Z,20.07
2019-03-03T22:39:20.823Z,20.08
2019-03-03T22:41:47.820Z,20.09
2019-03-03T22:44:15.049Z,20.07
2019-03-03T22:46:42.307Z,20.06
2019-03-03T22:49:09.571Z,20.04
2019-03-03T22:51:36.778Z,19.99
2019-03-03T22:54:03.749Z,20.02
2019-03-03T22:56:30.729Z,20.04
2019-03-03T22:58:57.869Z,20.08
2019-03-03T23:01:25.002Z,20.06
2019-03-03T23:03:52.368Z,20.08
2019-03-03T23:06:19.282Z,20.09
2019-03-03T23:08:46.592Z,20.07
2019-03-03T23:11:13.779Z,20.05
2019-03-03T23:13:40.676Z,20.05
2019-03-03T23:16:09.270Z,20.06
2019-03-03T23:18:36.257Z,20.04
2019-03-03T23:21:03.565Z,20.07
2019-03-03T23:23:30.564Z,20.09
2019-03-03T23:25:57.606Z,20.10
2019-03-03T23:28:24.596Z,20.12
2019-03-03T23:30:51.556Z,20.10
2019-03-03T23:33:18.838Z,20.08
2019-03-03T23:35:45.767Z,20.09
2019-03-03T23:38:12.658Z,20.05
2019-03-03T23:40:39.598Z,20.00
2019-03-03T23:43:07.549Z,19.96
2019-03-03T23:45:34.424Z,19.96
2019-03-03T23:48:01.451Z,19.98
2019-03-03T23:50:28.659Z,20.00
2019-03-03T23:52:55.535Z,20.04
2019-03-03T23:55:22.685Z,20.02
2019-03-03T23:57:49.647Z,20.02
